createdAt,value
2022-11-27T00:01:27.814Z,4.20
2022-11-27T00:03:56.165Z,4.21
2022-11-27T00:06:25.744Z,4.20
2022-11-27T00:08:52.849Z,4.21
2022-11-27T00:11:22.475Z,4.20
2022-11-27T00:13:50.464Z,4.18
2022-11-27T00:16:18.144Z,4.16
2022-11-27T00:18:46.017Z,4.18
2022-11-27T00:21:19.140Z,4.18
2022-11-27T00:23:46.668Z,4.18
2022-11-27T00:26:15.336Z,4.17
2022-11-27T00:28:42.665Z,4.18
2022-11-27T00:31:27.578Z,4.19
2022-11-27T00:33:55.929Z,4.19
2022-11-27T00:36:23.065Z,4.16
2022-11-27T00:38:49.961Z,4.16
2022-11-27T00:41:22.659Z,4.14
2022-11-27T00:43:49.918Z,4.16
2022-11-27T00:46:18.516Z,4.15
2022-11-27T00:48:46.103Z,4.14
2022-11-27T00:51:15.398Z,4.14
2022-11-27T00:53:42.701Z,4.14
2022-11-27T00:56:11.035Z,4.15
2022-11-27T00:58:37.703Z,4.13
2022-11-27T01:01:06.944Z,4.13
2022-11-27T01:03:34.767Z,4.09
2022-11-27T01:06:06.404Z,4.08
2022-11-27T01:08:33.981Z,4.09
2022-11-27T01:11:00.963Z,4.08
2022-11-27T01:13:30.184Z,4.04
2022-11-27T01:16:12.894Z,4.02
2022-11-27T01:18:42.142Z,3.99
2022-11-27T01:21:09.417Z,4.02
2022-11-27T01:23:36.854Z,4.01
2022-11-27T01:26:05.298Z,4.00
2022-11-27T01:28:32.941Z,3.96
2022-11-27T01:31:06.066Z,3.98
2022-11-27T01:33:33.186Z,3.96
2022-11-27T01:36:02.482Z,3.94
2022-11-27T01:38:30.349Z,3.91
2022-11-27T01:41:02.212Z,3.91
2022-11-27T01:43:57.944Z,3.93
2022-11-27T01:46:44.117Z,3.94
2022-11-27T01:49:10.836Z,3.96
2022-11-27T01:51:53.164Z,3.95
2022-11-27T01:54:22.823Z,3.97
2022-11-27T01:56:52.204Z,3.99
2022-11-27T01:59:19.533Z,4.00
2022-11-27T02:01:46.695Z,3.97
2022-11-27T02:04:13.846Z,3.93
2022-11-27T02:06:40.594Z,3.89
2022-11-27T02:09:07.424Z,3.91
2022-11-27T02:11:49.237Z,3.94
2022-11-27T02:14:24.391Z,3.90
2022-11-27T02:17:01.464Z,3.93
2022-11-27T02:19:33.784Z,3.94
2022-11-27T02:22:03.674Z,3.93
2022-11-27T02:24:48.349Z,3.91
2022-11-27T02:27:42.305Z,3.92
2022-11-27T02:30:09.693Z,3.86
2022-11-27T02:33:00.498Z,3.88
2022-11-27T02:35:39.373Z,3.86
2022-11-27T02:38:17.437Z,3.86
2022-11-27T02:40:54.698Z,3.85
2022-11-27T02:43:28.739Z,3.83
2022-11-27T02:45:55.875Z,3.80
2022-11-27T02:48:27.224Z,3.80
2022-11-27T02:50:54.316Z,3.79
2022-11-27T02:53:27.025Z,3.78
2022-11-27T02:55:54.888Z,3.79
2022-11-27T02:58:25.788Z,3.77
2022-11-27T03:00:52.904Z,3.79
2022-11-27T03:03:29.918Z,3.78
2022-11-27T03:06:04.853Z,3.77
2022-11-27T03:08:47.414Z,3.75
2022-11-27T03:11:15.541Z,3.74
2022-11-27T03:13:46.367Z,3.74
2022-11-27T03:16:25.020Z,3.74
2022-11-27T03:19:10.421Z,3.75
2022-11-27T03:21:40.982Z,3.74
2022-11-27T03:24:08.873Z,3.69
2022-11-27T03:26:37.129Z,3.71
2022-11-27T03:29:09.084Z,3.72
2022-11-27T03:31:35.998Z,3.71
2022-11-27T03:34:02.798Z,3.67
2022-11-27T03:36:29.438Z,3.67
2022-11-27T03:38:56.869Z,3.63
2022-11-27T03:41:49.624Z,3.60
2022-11-27T03:44:42.115Z,3.58
2022-11-27T03:47:37.020Z,3.59
2022-11-27T03:50:23.785Z,3.60
2022-11-27T03:53:14.941Z,3.61
2022-11-27T03:56:13.676Z,3.63
2022-11-27T03:58:52.247Z,3.60
2022-11-27T04:01:23.239Z,3.60
2022-11-27T04:03:49.954Z,3.59
2022-11-27T04:06:17.664Z,3.60
2022-11-27T04:08:48.795Z,3.61
2022-11-27T04:11:15.815Z,3.63
2022-11-27T04:13:42.839Z,3.65
2022-11-27T04:16:09.523Z,3.65
2022-11-27T04:18:36.219Z,3.63
2022-11-27T04:21:03.495Z,3.66
2022-11-27T04:23:30.196Z,3.63
2022-11-27T04:25:56.986Z,3.61
2022-11-27T04:28:23.637Z,3.62
2022-11-27T04:30:54.789Z,3.64
2022-11-27T04:33:21.966Z,3.59
2022-11-27T04:35:49.341Z,3.54
2022-11-27T04:38:16.190Z,3.46
2022-11-27T04:40:42.924Z,3.38
2022-11-27T04:43:09.636Z,3.42
2022-11-27T04:45:37.164Z,3.46
2022-11-27T04:48:04.818Z,3.49
2022-11-27T04:50:31.494Z,3.50
2022-11-27T04:52:58.438Z,3.51
2022-11-27T04:55:25.047Z,3.52
2022-11-27T04:57:51.646Z,3.52
2022-11-27T05:00:18.909Z,3.54
2022-11-27T05:02:45.577Z,3.57
2022-11-27T05:05:12.373Z,3.56
2022-11-27T05:07:39.241Z,3.54
2022-11-27T05:10:06.881Z,3.53
2022-11-27T05:12:33.605Z,3.50
2022-11-27T05:15:04.274Z,3.40
2022-11-27T05:17:31.584Z,3.46
2022-11-27T05:19:58.618Z,3.49
2022-11-27T05:22:25.261Z,3.50
2022-11-27T05:24:51.801Z,3.50
2022-11-27T05:27:18.785Z,3.49
2022-11-27T05:29:45.619Z,3.47
2022-11-27T05:32:12.248Z,3.47
2022-11-27T05:34:39.397Z,3.44
2022-11-27T05:37:06.500Z,3.39
2022-11-27T05:39:33.091Z,3.39
2022-11-27T05:41:59.824Z,3.38
2022-11-27T05:44:26.969Z,3.35
2022-11-27T05:46:53.681Z,3.35
2022-11-27T05:49:20.507Z,3.33
2022-11-27T05:51:51.350Z,3.35
2022-11-27T05:54:19.105Z,3.35
2022-11-27T05:56:45.791Z,3.34
2022-11-27T05:59:12.756Z,3.36
2022-11-27T06:01:39.581Z,3.34
2022-11-27T06:04:06.294Z,3.34
2022-11-27T06:06:32.963Z,3.30
2022-11-27T06:09:00.459Z,3.32
2022-11-27T06:11:27.525Z,3.32
2022-11-27T06:13:54.138Z,3.34
2022-11-27T06:16:23.203Z,3.32
2022-11-27T06:18:52.020Z,3.28
2022-11-27T06:21:19.895Z,3.26
2022-11-27T06:23:46.615Z,3.21
2022-11-27T06:26:14.774Z,3.23
2022-11-27T06:28:42.045Z,3.26
2022-11-27T06:31:20.612Z,3.28
2022-11-27T06:33:49.274Z,3.31
2022-11-27T06:36:16.431Z,3.28
2022-11-27T06:38:44.172Z,3.38
2022-11-27T06:41:19.628Z,3.46
2022-11-27T06:43:46.276Z,3.47
2022-11-27T06:46:16.365Z,3.51
2022-11-27T06:48:44.619Z,3.55
2022-11-27T06:51:14.484Z,3.60
2022-11-27T06:53:41.974Z,3.62
2022-11-27T06:56:11.653Z,3.63
2022-11-27T06:58:39.221Z,3.64
2022-11-27T07:01:09.739Z,3.66
2022-11-27T07:03:36.790Z,3.68
2022-11-27T07:06:05.041Z,3.70
2022-11-27T07:08:31.832Z,3.69
2022-11-27T07:11:07.307Z,3.71
2022-11-27T07:13:34.078Z,3.70
2022-11-27T07:16:02.244Z,3.73
2022-11-27T07:18:30.678Z,3.79
2022-11-27T07:20:57.420Z,3.76
2022-11-27T07:23:24.077Z,3.85
2022-11-27T07:25:50.812Z,3.89
2022-11-27T07:28:18.992Z,3.91
2022-11-27T07:30:53.814Z,3.89
2022-11-27T07:33:20.668Z,3.88
2022-11-27T07:35:47.265Z,3.83
2022-11-27T07:38:13.986Z,3.87
2022-11-27T07:40:40.674Z,3.86
2022-11-27T07:43:07.321Z,3.91
2022-11-27T07:45:34.136Z,3.94
2022-11-27T07:48:01.050Z,3.99
2022-11-27T07:50:27.624Z,4.01
2022-11-27T07:52:54.469Z,4.03
2022-11-27T07:55:21.115Z,4.09
2022-11-27T07:57:47.697Z,4.15
2022-11-27T08:00:15.144Z,4.10
2022-11-27T08:02:41.878Z,4.22
2022-11-27T08:05:12.655Z,4.20
2022-11-27T08:07:39.875Z,4.24
2022-11-27T08:10:07.284Z,4.27
2022-11-27T08:12:33.881Z,4.29
2022-11-27T08:15:00.603Z,4.33
2022-11-27T08:17:27.476Z,4.38
2022-11-27T08:19:54.098Z,4.42
2022-11-27T08:22:20.810Z,4.44
2022-11-27T08:24:48.185Z,4.52
2022-11-27T08:27:16.471Z,4.55
2022-11-27T08:29:43.642Z,4.62
2022-11-27T08:32:10.687Z,4.66
2022-11-27T08:34:37.672Z,4.68
2022-11-27T08:37:06.179Z,4.72
2022-11-27T08:39:33.072Z,4.75
2022-11-27T08:42:00.027Z,4.77
2022-11-27T08:44:26.741Z,4.80
2022-11-27T08:46:53.617Z,4.88
2022-11-27T08:49:20.337Z,4.92
2022-11-27T08:51:46.959Z,4.96
2022-11-27T08:54:13.686Z,4.98
2022-11-27T08:56:40.303Z,5.00
2022-11-27T08:59:06.996Z,5.04
2022-11-27T09:01:34.010Z,5.11
2022-11-27T09:04:00.858Z,5.13
2022-11-27T09:06:30.808Z,5.18
2022-11-27T09:08:59.504Z,5.24
2022-11-27T09:11:27.795Z,5.26
2022-11-27T09:13:55.016Z,5.32
2022-11-27T09:16:22.886Z,5.38
2022-11-27T09:18:51.497Z,5.43
2022-11-27T09:21:19.793Z,5.43
2022-11-27T09:23:46.655Z,5.46
2022-11-27T09:26:16.718Z,5.50
2022-11-27T09:28:44.494Z,5.56
2022-11-27T09:31:14.316Z,5.60
2022-11-27T09:33:41.685Z,5.62
2022-11-27T09:36:14.506Z,5.60
2022-11-27T09:38:42.497Z,5.64
2022-11-27T09:41:11.879Z,5.68
2022-11-27T09:44:20.442Z,5.71
2022-11-27T09:46:47.221Z,5.67
2022-11-27T09:49:36.869Z,5.67
2022-11-27T09:52:11.691Z,5.69
2022-11-27T09:54:52.211Z,5.72
2022-11-27T09:57:25.681Z,5.72
2022-11-27T09:59:54.199Z,5.75
2022-11-27T10:02:32.685Z,5.80
2022-11-27T10:05:17.615Z,5.85
2022-11-27T10:07:54.204Z,5.90
2022-11-27T10:10:27.335Z,5.89
2022-11-27T10:13:15.715Z,5.85
2022-11-27T10:15:49.030Z,5.82
2022-11-27T10:18:34.442Z,5.84
2022-11-27T10:21:20.198Z,5.85
2022-11-27T10:23:53.690Z,5.85
2022-11-27T10:26:35.175Z,5.81
2022-11-27T10:29:23.295Z,5.87
2022-11-27T10:31:53.653Z,5.89
2022-11-27T10:34:43.546Z,5.91
2022-11-27T10:37:19.582Z,6.00
2022-11-27T10:39:56.669Z,6.05
2022-11-27T10:42:32.573Z,6.05
2022-11-27T10:45:05.970Z,6.10
2022-11-27T10:47:34.020Z,6.11
2022-11-27T10:50:01.120Z,6.16
2022-11-27T10:52:27.776Z,6.20
2022-11-27T10:55:04.703Z,6.27
2022-11-27T10:58:06.536Z,6.31
2022-11-27T11:00:33.339Z,6.38
2022-11-27T11:03:05.174Z,6.42
2022-11-27T11:05:45.646Z,6.45
2022-11-27T11:08:21.180Z,6.47
2022-11-27T11:11:03.351Z,6.49
2022-11-27T11:13:33.398Z,6.52
2022-11-27T11:16:04.413Z,6.59
2022-11-27T11:18:42.839Z,6.60
2022-11-27T11:21:26.266Z,6.70
2022-11-27T11:23:57.917Z,6.72
2022-11-27T11:26:31.440Z,6.72
2022-11-27T11:29:01.857Z,6.72
2022-11-27T11:31:38.578Z,6.72
2022-11-27T11:34:18.380Z,6.69
2022-11-27T11:37:04.462Z,6.74
2022-11-27T11:39:44.521Z,6.78
2022-11-27T11:42:25.955Z,6.78
2022-11-27T11:44:55.755Z,6.73
2022-11-27T11:47:25.225Z,6.73
2022-11-27T11:49:55.312Z,6.74
2022-11-27T11:52:24.826Z,6.76
2022-11-27T11:55:13.293Z,6.80
2022-11-27T11:58:10.499Z,6.83
2022-11-27T12:01:25.959Z,6.87
2022-11-27T12:03:50.205Z,6.85
2022-11-27T12:06:36.047Z,6.84
2022-11-27T12:09:13.071Z,6.89
2022-11-27T12:12:17.953Z,6.91
2022-11-27T12:14:50.431Z,6.92
2022-11-27T12:17:37.188Z,6.92
2022-11-27T12:20:12.831Z,6.96
2022-11-27T12:23:08.015Z,6.98
2022-11-27T12:25:43.970Z,6.98
2022-11-27T12:28:30.094Z,6.96
2022-11-27T12:31:15.087Z,6.96
2022-11-27T12:34:18.578Z,6.97
2022-11-27T12:37:13.953Z,6.99
2022-11-27T12:40:05.306Z,7.04
2022-11-27T12:42:41.218Z,7.06
2022-11-27T12:45:14.348Z,7.07
2022-11-27T12:47:43.668Z,7.01
2022-11-27T12:50:38.286Z,7.11
2022-11-27T12:53:49.473Z,7.14
2022-11-27T12:56:25.271Z,7.16
2022-11-27T12:58:57.717Z,7.17
2022-11-27T13:01:33.486Z,7.18
2022-11-27T13:04:06.156Z,7.20
2022-11-27T13:06:40.394Z,7.19
2022-11-27T13:09:15.364Z,7.17
2022-11-27T13:11:43.253Z,7.20
2022-11-27T13:14:18.854Z,7.17
2022-11-27T13:16:53.153Z,7.18
2022-11-27T13:19:27.023Z,7.18
2022-11-27T13:21:56.304Z,7.17
2022-11-27T13:24:25.069Z,7.13
2022-11-27T13:27:13.779Z,7.07
2022-11-27T13:29:46.941Z,7.06
2022-11-27T13:32:51.355Z,7.06
2022-11-27T13:35:31.653Z,7.04
2022-11-27T13:38:08.953Z,7.02
2022-11-27T13:40:47.834Z,7.03
2022-11-27T13:43:30.579Z,7.05
2022-11-27T13:46:11.939Z,7.05
2022-11-27T13:48:42.795Z,7.04
2022-11-27T13:51:11.882Z,6.99
2022-11-27T13:53:42.534Z,6.95
2022-11-27T13:56:09.802Z,6.92
2022-11-27T13:58:39.731Z,6.89
2022-11-27T14:01:32.886Z,6.85
2022-11-27T14:04:09.225Z,6.82
2022-11-27T14:06:38.725Z,6.81
2022-11-27T14:09:06.965Z,6.77
2022-11-27T14:11:44.088Z,6.75
2022-11-27T14:14:23.051Z,6.72
2022-11-27T14:17:04.376Z,6.67
2022-11-27T14:19:34.594Z,6.61
2022-11-27T14:22:13.671Z,6.56
2022-11-27T14:24:44.032Z,6.49
2022-11-27T14:27:20.915Z,6.41
2022-11-27T14:29:48.678Z,6.36
2022-11-27T14:32:16.734Z,6.26
2022-11-27T14:34:44.252Z,6.16
2022-11-27T14:37:26.159Z,6.08
2022-11-27T14:39:52.900Z,5.94
2022-11-27T14:42:29.567Z,5.82
2022-11-27T14:45:02.247Z,5.71
2022-11-27T14:47:29.219Z,5.60
2022-11-27T14:49:56.582Z,5.46
2022-11-27T14:52:24.331Z,5.38
2022-11-27T14:54:51.751Z,5.28
2022-11-27T14:57:29.471Z,5.22
2022-11-27T15:00:27.259Z,5.17
2022-11-27T15:02:54.721Z,5.07
2022-11-27T15:05:27.406Z,5.00
2022-11-27T15:07:57.613Z,5.00
2022-11-27T15:10:37.451Z,4.94
2022-11-27T15:13:06.182Z,4.93
2022-11-27T15:15:42.219Z,4.92
2022-11-27T15:18:09.771Z,4.85
2022-11-27T15:20:44.922Z,4.89
2022-11-27T15:23:32.313Z,4.88
2022-11-27T15:26:02.252Z,4.85
2022-11-27T15:28:41.033Z,4.83
2022-11-27T15:31:28.020Z,4.79
2022-11-27T15:33:57.767Z,4.69
2022-11-27T15:36:25.408Z,4.62
2022-11-27T15:38:52.914Z,4.54
2022-11-27T15:41:28.986Z,4.48
2022-11-27T15:43:56.398Z,4.43
2022-11-27T15:46:27.020Z,4.36
2022-11-27T15:48:53.893Z,4.30
2022-11-27T15:51:20.560Z,4.22
2022-11-27T15:53:48.308Z,4.18
2022-11-27T15:56:16.324Z,4.10
2022-11-27T15:58:43.674Z,4.05
2022-11-27T16:01:11.414Z,4.01
2022-11-27T16:03:40.066Z,3.93
2022-11-27T16:06:08.969Z,3.83
2022-11-27T16:08:35.810Z,3.90
2022-11-27T16:11:06.105Z,3.95
2022-11-27T16:13:32.971Z,3.93
2022-11-27T16:16:08.617Z,3.89
2022-11-27T16:18:35.365Z,3.80
2022-11-27T16:21:06.598Z,3.90
2022-11-27T16:23:33.582Z,3.93
2022-11-27T16:26:00.424Z,3.95
2022-11-27T16:28:28.485Z,3.98
2022-11-27T16:30:57.164Z,3.99
2022-11-27T16:33:31.617Z,3.97
2022-11-27T16:36:09.156Z,4.02
2022-11-27T16:38:35.776Z,4.06
2022-11-27T16:41:04.462Z,4.08
2022-11-27T16:43:35.354Z,4.10
2022-11-27T16:46:23.066Z,4.09
2022-11-27T16:48:50.387Z,4.10
2022-11-27T16:51:21.757Z,4.13
2022-11-27T16:53:56.743Z,4.13
2022-11-27T16:56:27.069Z,4.14
2022-11-27T16:58:59.371Z,4.12
2022-11-27T17:01:31.995Z,4.09
2022-11-27T17:03:59.726Z,4.06
2022-11-27T17:06:29.304Z,4.07
2022-11-27T17:08:57.688Z,4.09
2022-11-27T17:11:27.261Z,4.10
2022-11-27T17:13:57.725Z,4.12
2022-11-27T17:16:24.944Z,4.11
2022-11-27T17:18:51.608Z,4.07
2022-11-27T17:21:27.553Z,4.12
2022-11-27T17:23:55.823Z,4.10
2022-11-27T17:26:24.047Z,4.08
2022-11-27T17:28:51.384Z,4.10
2022-11-27T17:31:20.400Z,4.08
2022-11-27T17:33:47.753Z,4.04
2022-11-27T17:36:15.632Z,4.02
2022-11-27T17:38:42.383Z,3.97
2022-11-27T17:41:11.622Z,3.95
2022-11-27T17:43:39.609Z,3.97
2022-11-27T17:46:33.283Z,3.94
2022-11-27T17:49:01.820Z,3.95
2022-11-27T17:51:31.542Z,3.94
2022-11-27T17:54:01.137Z,3.93
2022-11-27T17:56:28.977Z,3.94
2022-11-27T17:58:55.997Z,3.92
2022-11-27T18:01:24.972Z,3.92
2022-11-27T18:03:54.622Z,3.93
2022-11-27T18:06:23.269Z,3.88
2022-11-27T18:08:50.563Z,3.93
2022-11-27T18:11:20.911Z,3.96
2022-11-27T18:13:48.570Z,3.97
2022-11-27T18:16:15.636Z,3.96
2022-11-27T18:18:42.352Z,3.96
2022-11-27T18:21:17.868Z,3.99
2022-11-27T18:24:20.560Z,3.97
2022-11-27T18:29:22.806Z,3.93
2022-11-27T18:31:51.286Z,3.88
2022-11-27T18:34:18.030Z,3.88
2022-11-27T18:36:45.890Z,3.93
2022-11-27T18:39:12.994Z,3.90
2022-11-27T18:41:40.854Z,3.91
2022-11-27T18:44:07.585Z,3.92
2022-11-27T18:46:34.720Z,3.91
2022-11-27T18:49:01.379Z,3.95
2022-11-27T18:51:28.053Z,3.95
2022-11-27T18:53:56.057Z,3.95
2022-11-27T18:56:25.498Z,3.92
2022-11-27T18:58:53.851Z,3.91
2022-11-27T19:01:38.140Z,3.93
2022-11-27T19:04:06.735Z,3.93
2022-11-27T19:06:36.200Z,3.92
2022-11-27T19:09:03.044Z,3.87
2022-11-27T19:11:30.892Z,3.87
2022-11-27T19:13:58.645Z,3.90
2022-11-27T19:16:31.343Z,3.90
2022-11-27T19:19:00.586Z,3.87
2022-11-27T19:21:29.634Z,3.87
2022-11-27T19:23:58.600Z,3.89
2022-11-27T19:26:28.640Z,3.91
2022-11-27T19:28:57.962Z,3.90
2022-11-27T19:31:25.881Z,3.90
2022-11-27T19:33:55.916Z,3.85
2022-11-27T19:36:23.175Z,3.84
2022-11-27T19:38:55.079Z,3.84
2022-11-27T19:41:22.446Z,3.83
2022-11-27T19:43:49.430Z,3.82
2022-11-27T19:46:25.744Z,3.84
2022-11-27T19:48:57.348Z,3.81
2022-11-27T19:51:25.130Z,3.81
2022-11-27T19:53:52.461Z,3.84
2022-11-27T19:56:19.582Z,3.85
2022-11-27T19:58:46.271Z,3.85
2022-11-27T20:01:18.579Z,3.88
2022-11-27T20:03:46.256Z,3.85
2022-11-27T20:06:18.658Z,3.87
2022-11-27T20:08:46.770Z,3.83
2022-11-27T20:11:18.768Z,3.85
2022-11-27T20:13:45.885Z,3.85
2022-11-27T20:16:15.298Z,3.83
2022-11-27T20:18:41.975Z,3.83
2022-11-27T20:21:20.769Z,3.81
2022-11-27T20:23:49.326Z,3.82
2022-11-27T20:26:19.125Z,3.84
2022-11-27T20:28:46.232Z,3.84
2022-11-27T20:31:17.036Z,3.80
2022-11-27T20:33:43.769Z,3.79
2022-11-27T20:36:12.776Z,3.80
2022-11-27T20:38:39.891Z,3.81
2022-11-27T20:41:09.195Z,3.80
2022-11-27T20:43:36.827Z,3.78
2022-11-27T20:46:04.119Z,3.76
2022-11-27T20:48:31.621Z,3.73
2022-11-27T20:51:08.865Z,3.73
2022-11-27T20:53:35.795Z,3.69
2022-11-27T20:56:06.780Z,3.71
2022-11-27T20:58:37.895Z,3.72
2022-11-27T21:01:26.373Z,3.68
2022-11-27T21:03:54.688Z,3.67
2022-11-27T21:06:23.622Z,3.66
2022-11-27T21:08:50.463Z,3.66
2022-11-27T21:11:18.770Z,3.66
2022-11-27T21:13:46.888Z,3.63
2022-11-27T21:16:14.478Z,3.65
2022-11-27T21:18:41.409Z,3.58
2022-11-27T21:21:13.595Z,3.58
2022-11-27T21:23:41.775Z,3.62
2022-11-27T21:26:09.497Z,3.64
2022-11-27T21:28:36.842Z,3.62
2022-11-27T21:31:08.381Z,3.61
2022-11-27T21:33:36.017Z,3.59
2022-11-27T21:36:03.275Z,3.59
2022-11-27T21:38:29.991Z,3.58
2022-11-27T21:40:56.728Z,3.59
2022-11-27T21:43:23.554Z,3.58
2022-11-27T21:45:50.462Z,3.60
2022-11-27T21:48:17.170Z,3.57
2022-11-27T21:50:43.929Z,3.56
2022-11-27T21:53:10.565Z,3.56
2022-11-27T21:55:44.315Z,3.56
2022-11-27T21:58:11.064Z,3.55
2022-11-27T22:00:38.082Z,3.57
2022-11-27T22:03:05.343Z,3.58
2022-11-27T22:05:32.427Z,3.59
2022-11-27T22:07:59.142Z,3.59
2022-11-27T22:10:25.951Z,3.58
2022-11-27T22:12:53.026Z,3.58
2022-11-27T22:15:19.972Z,3.57
2022-11-27T22:17:46.714Z,3.54
2022-11-27T22:20:13.720Z,3.55
2022-11-27T22:22:40.341Z,3.56
2022-11-27T22:25:07.285Z,3.56
2022-11-27T22:27:34.203Z,3.57
2022-11-27T22:30:00.805Z,3.59
2022-11-27T22:32:27.566Z,3.58
2022-11-27T22:34:54.262Z,3.57
2022-11-27T22:37:20.824Z,3.56
2022-11-27T22:39:47.536Z,3.56
2022-11-27T22:42:14.309Z,3.53
2022-11-27T22:44:41.107Z,3.56
2022-11-27T22:47:07.997Z,3.55
2022-11-27T22:49:34.729Z,3.54
2022-11-27T22:52:01.434Z,3.57
2022-11-27T22:54:28.096Z,3.56
2022-11-27T22:56:54.954Z,3.56
2022-11-27T22:59:36.832Z,3.52
2022-11-27T23:02:03.819Z,3.52
2022-11-27T23:04:30.707Z,3.52
2022-11-27T23:06:57.285Z,3.53
2022-11-27T23:09:24.211Z,3.53
2022-11-27T23:11:50.910Z,3.51
2022-11-27T23:14:17.945Z,3.51
2022-11-27T23:16:45.157Z,3.49
2022-11-27T23:19:12.484Z,3.46
2022-11-27T23:21:39.743Z,3.49
2022-11-27T23:24:08.476Z,3.44
2022-11-27T23:26:36.752Z,3.38
2022-11-27T23:29:04.562Z,3.39
2022-11-27T23:31:35.386Z,3.35
2022-11-27T23:34:07.674Z,3.38
2022-11-27T23:36:35.389Z,3.38
2022-11-27T23:39:05.179Z,3.37
2022-11-27T23:41:32.331Z,3.37
2022-11-27T23:43:59.585Z,3.35
2022-11-27T23:46:29.393Z,3.31
2022-11-27T23:48:58.304Z,3.30
2022-11-27T23:51:28.319Z,3.29
2022-11-27T23:53:55.835Z,3.20
2022-11-27T23:56:28.334Z,3.29
2022-11-27T23:58:56.206Z,3.23
